Healing Springs, Alabama
Current Conditions -  °F | °C
As of 10:58 PM on Saturday 20 Dec 2014 (Local Time) from KMEI Reporting Station
Clear Clear  
Wind Chill: 33°   Ceiling: Unl
Heat Index: 37°   Visibility: 10mi
Dew Point: 35°   Wind: 5mph
Humidity: 93%   Direction: 10°N
Pressure: 30.19"   Gusts: NA
Location:  31.6272°N, 88.354°W
Report Text: KMEI 210458Z AUTO 01004KT 10SM CLR 03/02 A3019 RMK AO2 SLP223 T00280017
Loading
Personal Weather Stations






























Interactive Weather Map New forecast layout! Learn more

10-Day Weather Forecast

Advertisements
Track Severe Weather on mobile